Time;durP1;ratioP1;P1;durP2;ratioP2;P2;SDS_P1;SDS_P2;PMS_P1;PMS_P2;Temp;Humidity;BMP_temperature;BMP_pressure;BME280_temperature;BME280_humidity;BME280_pressure;Samples;Min_cycle;Max_cycle;Signal;HPM_P1;HPM_P2
2021/04/19 00:00:51;;;;;;;1.70;0.90;;;;;;;;;;10142527;28;21030;-63
2021/04/19 00:05:49;;;;;;;1.37;1.10;;;;;;;;;;10144922;28;20056;-63
2021/04/19 00:10:46;;;;;;;1.50;1.03;;;;;;;;;;10153101;28;20049;-63
2021/04/19 00:15:43;;;;;;;3.33;1.20;;;;;;;;;;10146598;28;20136;-62
2021/04/19 00:20:41;;;;;;;4.03;1.17;;;;;;;;;;10261285;28;20509;-62
2021/04/19 00:25:39;;;;;;;2.07;1.47;;;;;;;;;;10282910;28;20035;-62
2021/04/19 00:30:36;;;;;;;1.67;0.90;;;;;;;;;;10256033;28;20042;-61
2021/04/19 00:35:34;;;;;;;2.40;1.03;;;;;;;;;;10225940;28;20034;-61
2021/04/19 00:40:31;;;;;;;2.23;1.30;;;;;;;;;;10223868;28;20044;-62
2021/04/19 00:45:29;;;;;;;7.43;1.10;;;;;;;;;;10232068;28;20042;-60
2021/04/19 00:50:28;;;;;;;2.33;1.57;;;;;;;;;;10230927;28;20129;-62
2021/04/19 00:55:26;;;;;;;2.20;1.33;;;;;;;;;;10249247;28;20121;-60
2021/04/19 01:00:26;;;;;;;2.10;1.37;;;;;;;;;;10267500;28;20121;-62
2021/04/19 01:05:32;;;;;;;1.77;1.20;;;;;;;;;;10283780;28;20478;-62
2021/04/19 01:10:30;;;;;;;2.60;1.55;;;;;;;;;;10264422;28;20081;-60
2021/04/19 01:15:27;;;;;;;5.53;1.53;;;;;;;;;;10263971;28;20129;-61
2021/04/19 01:20:27;;;;;;;3.78;1.88;;;;;;;;;;10228443;28;20377;-61
2021/04/19 01:25:28;;;;;;;3.17;1.40;;;;;;;;;;10263867;28;20112;-62
2021/04/19 01:30:29;;;;;;;1.58;1.33;;;;;;;;;;10248518;28;20045;-61
2021/04/19 01:35:29;;;;;;;3.55;1.55;;;;;;;;;;10253923;28;20537;-61
2021/04/19 01:40:27;;;;;;;4.75;2.20;;;;;;;;;;10243526;28;20029;-60
2021/04/19 01:45:25;;;;;;;3.95;2.03;;;;;;;;;;10271297;28;20048;-60
2021/04/19 01:50:23;;;;;;;;;;;;;;;;;;10256960;28;20183;-62
2021/04/19 01:55:25;;;;;;;3.40;2.25;;;;;;;;;;10268011;28;19914;-61
2021/04/19 02:00:25;;;;;;;3.42;1.40;;;;;;;;;;10220233;28;20030;-58
2021/04/19 02:05:37;;;;;;;4.10;1.58;;;;;;;;;;10263203;28;20045;-64
2021/04/19 02:10:46;;;;;;;5.40;1.98;;;;;;;;;;10233607;28;20041;-63
2021/04/19 02:15:47;;;;;;;3.08;1.90;;;;;;;;;;10270685;28;20124;-62
2021/04/19 02:20:50;;;;;;;5.55;2.10;;;;;;;;;;10263317;28;20495;-63
2021/04/19 02:25:50;;;;;;;1.55;0.90;;;;;;;;;;10277569;28;20033;-63
2021/04/19 02:30:50;;;;;;;0.50;0.50;;;;;;;;;;10273303;28;20039;-63
2021/04/19 02:35:49;;;;;;;3.50;1.00;;;;;;;;;;10273274;28;20029;-63
2021/04/19 02:40:47;;;;;;;1.17;1.02;;;;;;;;;;10277146;28;20120;-60
2021/04/19 02:45:45;;;;;;;4.22;0.70;;;;;;;;;;10280780;28;20026;-63
2021/04/19 02:50:52;;;;;;;2.90;1.30;;;;;;;;;;10242252;28;20026;-62
2021/04/19 02:55:50;;;;;;;1.40;1.08;;;;;;;;;;10275855;28;20414;-61
2021/04/19 03:00:48;;;;;;;;;;;;;;;;;;10252059;28;20034;-63
2021/04/19 03:05:46;;;;;;;4.55;1.38;;;;;;;;;;10265737;28;19917;-61
2021/04/19 03:10:52;;;;;;;0.90;0.88;;;;;;;;;;10284077;28;20034;-64
2021/04/19 03:15:51;;;;;;;2.13;0.85;;;;;;;;;;10271578;28;20398;-63
2021/04/19 03:20:49;;;;;;;;;;;;;;;;;;10278522;28;20080;-63
2021/04/19 03:25:51;;;;;;;2.10;0.60;;;;;;;;;;10262342;28;19967;-64
2021/04/19 03:30:51;;;;;;;2.22;0.57;;;;;;;;;;10245304;28;20478;-61
2021/04/19 03:35:51;;;;;;;1.90;1.20;;;;;;;;;;10272663;28;20030;-62
2021/04/19 03:40:51;;;;;;;5.47;1.23;;;;;;;;;;10274057;28;20034;-59
2021/04/19 03:45:55;;;;;;;3.42;1.27;;;;;;;;;;10277772;28;20041;-62
2021/04/19 03:51:03;;;;;;;1.23;1.13;;;;;;;;;;10271438;28;20042;-61
2021/04/19 03:56:03;;;;;;;4.50;1.95;;;;;;;;;;10270050;28;20045;-61
2021/04/19 04:01:08;;;;;;;4.55;2.28;;;;;;;;;;10231518;28;20038;-61
2021/04/19 04:06:17;;;;;;;3.83;2.08;;;;;;;;;;10226899;28;20050;-61
2021/04/19 04:11:15;;;;;;;2.85;1.95;;;;;;;;;;10264382;28;20411;-61
2021/04/19 04:16:15;;;;;;;4.30;2.47;;;;;;;;;;10240979;28;20057;-59
2021/04/19 04:21:38;;;;;;;3.20;2.58;;;;;;;;;;10271424;28;20049;-60
2021/04/19 04:26:46;;;;;;;5.72;2.38;;;;;;;;;;10229750;28;20026;-60
2021/04/19 04:31:43;;;;;;;5.97;2.83;;;;;;;;;;10243855;28;20577;-61
2021/04/19 04:36:43;;;;;;;4.25;2.00;;;;;;;;;;10236414;28;20064;-60
2021/04/19 04:41:44;;;;;;;3.95;2.08;;;;;;;;;;10273664;28;20442;-62
2021/04/19 04:46:48;;;;;;;2.77;2.00;;;;;;;;;;10257436;28;20119;-63
2021/04/19 04:51:46;;;;;;;2.88;1.98;;;;;;;;;;10231654;28;20034;-63
2021/04/19 04:56:48;;;;;;;4.35;2.30;;;;;;;;;;10261152;28;20188;-62
2021/04/19 05:01:46;;;;;;;3.90;2.03;;;;;;;;;;10250417;28;20049;-62
2021/04/19 05:06:44;;;;;;;6.68;3.40;;;;;;;;;;10231419;28;20045;-62
2021/04/19 05:11:42;;;;;;;8.03;4.30;;;;;;;;;;10236229;28;20487;-62
2021/04/19 05:16:39;;;;;;;13.02;6.60;;;;;;;;;;10273813;28;20120;-64
2021/04/19 05:21:37;;;;;;;14.47;7.50;;;;;;;;;;10280011;28;20121;-64
2021/04/19 05:26:35;;;;;;;18.90;7.80;;;;;;;;;;10249277;28;20034;-64
2021/04/19 05:31:32;;;;;;;22.00;8.30;;;;;;;;;;10242099;28;20073;-64
2021/04/19 05:36:30;;;;;;;16.27;8.10;;;;;;;;;;10237572;28;20049;-63
2021/04/19 05:41:27;;;;;;;23.43;10.20;;;;;;;;;;10260425;28;20034;-62
2021/04/19 05:46:25;;;;;;;17.90;7.73;;;;;;;;;;10236230;28;20053;-64
2021/04/19 05:51:27;;;;;;;13.60;5.40;;;;;;;;;;10274645;28;20038;-63
2021/04/19 05:56:40;;;;;;;17.98;7.47;;;;;;;;;;10265221;28;20185;-64
2021/04/19 06:01:38;;;;;;;10.73;5.18;;;;;;;;;;10255769;28;20403;-61
2021/04/19 06:06:54;;;;;;;10.35;5.13;;;;;;;;;;10220932;28;20026;-64
2021/04/19 06:12:05;;;;;;;13.88;5.47;;;;;;;;;;10273509;28;20076;-64
2021/04/19 06:17:06;;;;;;;18.60;8.65;;;;;;;;;;10236997;28;20434;-64
2021/04/19 06:22:05;;;;;;;14.65;6.70;;;;;;;;;;10249961;28;20563;-64
2021/04/19 06:27:02;;;;;;;22.95;7.35;;;;;;;;;;10235642;28;20051;-60
2021/04/19 06:32:00;;;;;;;24.57;11.47;;;;;;;;;;10250192;28;20045;-61
2021/04/19 06:36:57;;;;;;;17.67;8.33;;;;;;;;;;10255357;28;20042;-64
2021/04/19 06:41:55;;;;;;;19.60;9.00;;;;;;;;;;10251272;28;20057;-64
2021/04/19 06:46:54;;;;;;;20.80;8.80;;;;;;;;;;10254638;28;20489;-64
2021/04/19 06:51:55;;;;;;;21.92;9.68;;;;;;;;;;10256663;28;20265;-64
2021/04/19 06:56:54;;;;;;;21.08;9.48;;;;;;;;;;10226359;28;20469;-64
2021/04/19 07:01:53;;;;;;;21.15;9.95;;;;;;;;;;10279715;28;20033;-63
2021/04/19 07:06:51;;;;;;;24.58;9.00;;;;;;;;;;10234445;28;20088;-64
2021/04/19 07:11:50;;;;;;;21.70;8.57;;;;;;;;;;10242868;28;20038;-64
2021/04/19 07:16:48;;;;;;;18.88;8.82;;;;;;;;;;10251390;28;20058;-63
2021/04/19 07:21:46;;;;;;;16.42;7.18;;;;;;;;;;10283825;28;20155;-64
2021/04/19 07:26:45;;;;;;;16.33;7.83;;;;;;;;;;10259703;28;20060;-63
2021/04/19 07:31:46;;;;;;;18.38;8.68;;;;;;;;;;10270663;28;20068;-64
2021/04/19 07:36:50;;;;;;;21.88;8.00;;;;;;;;;;10259496;28;20034;-64
2021/04/19 07:41:51;;;;;;;16.67;7.57;;;;;;;;;;10225097;28;20499;-63
2021/04/19 07:46:49;;;;;;;22.70;7.93;;;;;;;;;;10279954;28;20030;-64
2021/04/19 07:51:46;;;;;;;16.13;7.30;;;;;;;;;;10246046;28;20034;-63
2021/04/19 07:56:50;;;;;;;21.30;8.17;;;;;;;;;;10237246;28;20059;-62
2021/04/19 08:01:57;;;;;;;20.42;8.02;;;;;;;;;;10270939;28;20046;-63
2021/04/19 08:06:54;;;;;;;11.82;5.75;;;;;;;;;;10237333;28;20061;-63
2021/04/19 08:11:57;;;;;;;16.17;7.73;;;;;;;;;;10250565;28;20057;-63
2021/04/19 08:17:11;;;;;;;16.92;8.15;;;;;;;;;;10269966;28;20029;-62
2021/04/19 08:22:19;;;;;;;16.65;7.50;;;;;;;;;;10237156;28;20230;-62
2021/04/19 08:27:20;;;;;;;15.70;7.00;;;;;;;;;;10274663;28;20598;-63
2021/04/19 08:32:19;;;;;;;16.60;8.20;;;;;;;;;;10270866;28;20127;-63
2021/04/19 08:37:17;;;;;;;14.15;6.95;;;;;;;;;;10288389;28;20384;-64
2021/04/19 08:42:15;;;;;;;16.35;7.00;;;;;;;;;;10238611;28;20042;-61
2021/04/19 08:47:14;;;;;;;14.80;7.33;;;;;;;;;;10231619;28;20465;-63
2021/04/19 08:52:12;;;;;;;13.23;6.15;;;;;;;;;;10292116;28;20030;-62
2021/04/19 08:57:09;;;;;;;10.85;6.13;;;;;;;;;;10276518;28;20038;-62
2021/04/19 09:02:07;;;;;;;13.23;5.70;;;;;;;;;;10280481;28;20053;-63
2021/04/19 09:07:04;;;;;;;14.65;6.43;;;;;;;;;;10233599;28;20496;-63
2021/04/19 09:12:11;;;;;;;13.73;6.63;;;;;;;;;;10248510;28;20065;-63
2021/04/19 09:17:09;;;;;;;13.90;6.63;;;;;;;;;;10228765;28;20037;-63
2021/04/19 09:22:07;;;;;;;14.70;6.43;;;;;;;;;;10233809;28;20034;-63
2021/04/19 09:27:04;;;;;;;12.63;5.72;;;;;;;;;;10254106;28;20038;-61
2021/04/19 09:32:06;;;;;;;13.33;5.63;;;;;;;;;;10247005;28;20044;-62
2021/04/19 09:37:04;;;;;;;10.93;6.18;;;;;;;;;;10224150;28;20038;-62
2021/04/19 09:42:01;;;;;;;12.43;6.50;;;;;;;;;;10251459;28;20030;-62
2021/04/19 09:46:59;;;;;;;8.65;4.65;;;;;;;;;;10265738;28;20281;-62
2021/04/19 09:51:56;;;;;;;13.40;5.00;;;;;;;;;;10253177;28;20045;-63
2021/04/19 09:56:54;;;;;;;12.47;4.70;;;;;;;;;;10253598;28;20030;-64
2021/04/19 10:01:53;;;;;;;13.40;4.77;;;;;;;;;;10260507;28;20511;-62
2021/04/19 10:06:50;;;;;;;9.55;4.13;;;;;;;;;;10282975;28;20458;-61
2021/04/19 10:11:49;;;;;;;7.03;3.33;;;;;;;;;;10290066;28;20045;-63
2021/04/19 10:16:48;;;;;;;4.75;3.05;;;;;;;;;;10286637;28;20032;-63
2021/04/19 10:21:56;;;;;;;6.10;3.47;;;;;;;;;;10251057;28;20637;-63
2021/04/19 10:26:53;;;;;;;4.68;2.63;;;;;;;;;;10254438;28;20525;-63
2021/04/19 10:31:50;;;;;;;;;;;;;;;;;;10236134;28;20058;-64
2021/04/19 10:36:52;;;;;;;5.35;2.95;;;;;;;;;;10230511;28;20004;-63
2021/04/19 10:41:53;;;;;;;5.55;3.28;;;;;;;;;;10248399;28;20030;-64
2021/04/19 10:46:51;;;;;;;9.10;2.97;;;;;;;;;;10254277;28;20034;-62
2021/04/19 10:51:48;;;;;;;;;;;;;;;;;;10245522;28;20056;-62
2021/04/19 10:56:46;;;;;;;5.78;2.33;;;;;;;;;;10241955;28;19921;-62
2021/04/19 11:01:44;;;;;;;4.32;2.35;;;;;;;;;;10237345;28;20717;-62
2021/04/19 11:06:41;;;;;;;4.72;2.17;;;;;;;;;;10253487;28;20049;-61
2021/04/19 11:11:40;;;;;;;2.30;2.10;;;;;;;;;;10237469;28;20967;-62
2021/04/19 11:16:55;;;;;;;3.63;1.77;;;;;;;;;;10238558;28;20046;-62
2021/04/19 11:21:52;;;;;;;3.58;2.15;;;;;;;;;;10248898;28;20038;-62
2021/04/19 11:26:49;;;;;;;4.83;1.77;;;;;;;;;;10247303;28;20393;-63
2021/04/19 11:31:50;;;;;;;1.97;1.43;;;;;;;;;;10246884;28;20084;-63
2021/04/19 11:36:47;;;;;;;4.07;1.83;;;;;;;;;;10242375;28;20042;-62
2021/04/19 11:41:45;;;;;;;3.13;1.55;;;;;;;;;;10248363;28;20043;-63
2021/04/19 11:46:44;;;;;;;3.80;1.60;;;;;;;;;;10259424;28;20109;-62
2021/04/19 11:51:42;;;;;;;1.02;0.93;;;;;;;;;;10227220;28;20037;-63
2021/04/19 11:56:40;;;;;;;3.85;1.80;;;;;;;;;;10242758;28;20434;-63
2021/04/19 12:01:38;;;;;;;2.40;1.47;;;;;;;;;;10238876;28;20052;-63
2021/04/19 12:06:36;;;;;;;6.28;1.50;;;;;;;;;;10249388;28;20288;-64
2021/04/19 12:11:33;;;;;;;2.75;1.90;;;;;;;;;;10244364;28;20504;-63
2021/04/19 12:16:31;;;;;;;3.07;2.23;;;;;;;;;;10221665;28;20978;-63
2021/04/19 12:21:29;;;;;;;3.08;2.10;;;;;;;;;;10250237;28;20805;-62
2021/04/19 12:26:26;;;;;;;4.00;2.15;;;;;;;;;;10258345;28;20026;-63
2021/04/19 12:31:24;;;;;;;2.15;1.17;;;;;;;;;;10242811;28;20042;-63
2021/04/19 12:36:21;;;;;;;3.53;2.20;;;;;;;;;;10266194;28;20416;-63
2021/04/19 12:41:19;;;;;;;6.57;1.97;;;;;;;;;;10285306;28;20106;-63
2021/04/19 12:46:16;;;;;;;8.83;2.97;;;;;;;;;;10274922;28;20037;-63
2021/04/19 12:51:13;;;;;;;3.33;2.07;;;;;;;;;;10283087;28;20117;-61
2021/04/19 12:56:11;;;;;;;3.37;2.07;;;;;;;;;;10256582;28;20347;-61
2021/04/19 13:01:09;;;;;;;2.80;1.80;;;;;;;;;;10222589;28;20325;-63
2021/04/19 13:06:06;;;;;;;8.68;5.53;;;;;;;;;;10255499;28;20100;-65
2021/04/19 13:11:04;;;;;;;7.95;3.70;;;;;;;;;;10251808;28;20026;-63
2021/04/19 13:16:01;;;;;;;4.93;1.77;;;;;;;;;;10282950;28;20124;-63
2021/04/19 13:20:59;;;;;;;5.63;2.40;;;;;;;;;;10266291;28;20041;-63
2021/04/19 13:25:57;;;;;;;4.85;2.80;;;;;;;;;;10258226;28;20053;-64
2021/04/19 13:30:54;;;;;;;12.57;6.97;;;;;;;;;;10235565;28;20038;-64
2021/04/19 13:35:52;;;;;;;9.87;6.37;;;;;;;;;;10252991;28;20179;-64
2021/04/19 13:40:49;;;;;;;5.80;3.33;;;;;;;;;;10247475;28;20030;-63
2021/04/19 13:45:46;;;;;;;8.53;5.13;;;;;;;;;;10212419;28;20046;-64
2021/04/19 13:50:44;;;;;;;7.55;5.85;;;;;;;;;;10251202;28;20268;-64
2021/04/19 13:55:41;;;;;;;8.80;3.85;;;;;;;;;;10265959;28;20145;-64
2021/04/19 14:00:39;;;;;;;12.47;7.27;;;;;;;;;;10258933;28;20056;-64
2021/04/19 14:05:36;;;;;;;15.53;8.33;;;;;;;;;;10288175;28;20128;-63
2021/04/19 14:10:34;;;;;;;9.10;5.90;;;;;;;;;;10283025;28;20041;-64
2021/04/19 14:15:31;;;;;;;11.32;6.70;;;;;;;;;;10269496;28;20277;-62
2021/04/19 14:20:29;;;;;;;12.25;7.43;;;;;;;;;;10231103;28;20041;-63
2021/04/19 14:25:26;;;;;;;10.63;7.25;;;;;;;;;;10275780;28;20042;-63
2021/04/19 14:30:24;;;;;;;13.57;8.97;;;;;;;;;;10266126;28;20069;-63
2021/04/19 14:35:21;;;;;;;10.45;6.70;;;;;;;;;;10242045;28;20281;-64
2021/04/19 14:40:19;;;;;;;12.73;6.25;;;;;;;;;;10248787;28;20418;-64
2021/04/19 14:45:17;;;;;;;3.03;2.35;;;;;;;;;;10233237;28;20048;-64
2021/04/19 14:50:14;;;;;;;16.08;8.60;;;;;;;;;;10243457;28;20226;-65
2021/04/19 14:55:12;;;;;;;15.23;8.47;;;;;;;;;;10249415;28;20445;-65
2021/04/19 15:00:10;;;;;;;15.15;9.63;;;;;;;;;;10248442;28;20289;-64
2021/04/19 15:05:08;;;;;;;14.95;9.75;;;;;;;;;;10247199;28;20034;-65
2021/04/19 15:10:06;;;;;;;17.20;10.45;;;;;;;;;;10260876;28;20131;-65
2021/04/19 15:15:03;;;;;;;16.38;10.35;;;;;;;;;;10276065;28;20063;-64
2021/04/19 15:20:02;;;;;;;19.77;13.82;;;;;;;;;;10258512;28;20030;-63
2021/04/19 15:24:59;;;;;;;18.70;12.52;;;;;;;;;;10252497;28;20042;-64
2021/04/19 15:29:57;;;;;;;22.23;14.30;;;;;;;;;;10245036;28;20129;-63
2021/04/19 15:34:57;;;;;;;16.45;11.95;;;;;;;;;;10291541;28;20041;-63
2021/04/19 15:39:55;;;;;;;12.25;6.78;;;;;;;;;;10271938;28;20057;-64
2021/04/19 15:44:54;;;;;;;3.90;1.47;;;;;;;;;;10270788;28;20044;-63
2021/04/19 15:49:52;;;;;;;9.05;4.78;;;;;;;;;;10249664;28;20121;-64
2021/04/19 15:54:49;;;;;;;6.00;2.90;;;;;;;;;;10232284;28;20132;-64
2021/04/19 15:59:47;;;;;;;14.25;7.53;;;;;;;;;;10244470;28;20033;-63
2021/04/19 16:04:44;;;;;;;14.38;8.38;;;;;;;;;;10246939;28;20200;-63
2021/04/19 16:09:42;;;;;;;9.83;6.03;;;;;;;;;;10285238;28;20033;-63
2021/04/19 16:14:39;;;;;;;7.67;4.30;;;;;;;;;;10283929;28;20777;-64
2021/04/19 16:19:36;;;;;;;10.43;5.40;;;;;;;;;;10266460;28;20276;-64
2021/04/19 16:24:34;;;;;;;10.43;6.63;;;;;;;;;;10264723;28;20499;-63
2021/04/19 16:29:31;;;;;;;9.00;3.60;;;;;;;;;;10272488;28;20134;-63
2021/04/19 16:34:29;;;;;;;13.00;7.23;;;;;;;;;;10271389;28;20419;-63
2021/04/19 16:39:26;;;;;;;10.83;5.80;;;;;;;;;;10276992;28;20041;-62
2021/04/19 16:44:23;;;;;;;;;;;;;;;;;;10259579;28;20812;-63
2021/04/19 16:49:21;;;;;;;8.45;4.47;;;;;;;;;;10255717;28;20008;-62
2021/04/19 16:54:18;;;;;;;;;;;;;;;;;;10252445;28;20040;-64
2021/04/19 16:59:15;;;;;;;10.65;6.25;;;;;;;;;;10244425;28;19913;-63
2021/04/19 17:04:13;;;;;;;;;;;;;;;;;;10264940;28;20430;-63
2021/04/19 17:09:10;;;;;;;6.25;4.22;;;;;;;;;;10279801;28;19963;-63
2021/04/19 17:14:07;;;;;;;;;;;;;;;;;;10284072;28;20120;-63
2021/04/19 17:19:05;;;;;;;9.05;4.82;;;;;;;;;;10269919;28;19913;-63
2021/04/19 17:24:02;;;;;;;;;;;;;;;;;;10276860;28;20042;-63
2021/04/19 17:28:59;;;;;;;2.50;1.27;;;;;;;;;;10253550;28;20354;-63
2021/04/19 17:33:57;;;;;;;9.73;5.07;;;;;;;;;;10272092;28;20092;-63
2021/04/19 17:38:54;;;;;;;6.70;4.10;;;;;;;;;;10264944;28;20037;-62
2021/04/19 17:43:51;;;;;;;1.70;0.97;;;;;;;;;;10238584;28;20506;-63
2021/04/19 17:48:49;;;;;;;10.20;5.13;;;;;;;;;;10252646;28;20029;-64
2021/04/19 17:53:50;;;;;;;9.88;6.05;;;;;;;;;;10289188;28;20021;-62
2021/04/19 17:58:48;;;;;;;6.55;3.00;;;;;;;;;;10272997;28;20506;-63
2021/04/19 18:03:45;;;;;;;9.63;3.47;;;;;;;;;;10240612;28;20022;-62
2021/04/19 18:08:42;;;;;;;4.70;1.63;;;;;;;;;;10249826;28;20026;-63
2021/04/19 18:13:40;;;;;;;15.57;6.13;;;;;;;;;;10284719;28;20041;-62
2021/04/19 18:18:37;;;;;;;4.80;1.30;;;;;;;;;;10251897;28;20132;-64
2021/04/19 18:23:35;;;;;;;6.13;2.00;;;;;;;;;;10256220;28;20599;-65
2021/04/19 18:28:32;;;;;;;4.40;2.87;;;;;;;;;;10286577;28;20026;-65
2021/04/19 18:33:30;;;;;;;4.40;2.80;;;;;;;;;;10273937;28;20464;-64
2021/04/19 18:38:27;;;;;;;3.80;2.43;;;;;;;;;;10268877;28;20038;-65
2021/04/19 18:43:26;;;;;;;6.83;2.80;;;;;;;;;;10264214;28;20559;-64
2021/04/19 18:48:23;;;;;;;;;;;;;;;;;;10276699;28;20930;-63
2021/04/19 18:53:21;;;;;;;4.53;2.10;;;;;;;;;;10225944;28;19964;-64
2021/04/19 18:58:21;;;;;;;4.33;3.03;;;;;;;;;;10221245;28;20172;-64
2021/04/19 19:03:18;;;;;;;4.95;3.17;;;;;;;;;;10238592;28;20997;-62
2021/04/19 19:08:16;;;;;;;4.67;2.27;;;;;;;;;;10243523;28;20033;-63
2021/04/19 19:13:13;;;;;;;7.23;2.40;;;;;;;;;;10231879;28;20080;-65
2021/04/19 19:18:11;;;;;;;5.43;2.90;;;;;;;;;;10233441;28;21010;-63
2021/04/19 19:23:08;;;;;;;4.53;2.70;;;;;;;;;;10245489;28;20188;-61
2021/04/19 19:28:07;;;;;;;6.20;3.30;;;;;;;;;;10284942;28;20036;-63
2021/04/19 19:33:04;;;;;;;5.22;2.92;;;;;;;;;;10279175;28;20510;-62
2021/04/19 19:38:03;;;;;;;5.40;3.10;;;;;;;;;;10268034;28;20041;-61
2021/04/19 19:43:01;;;;;;;5.72;2.78;;;;;;;;;;10267002;28;20037;-64
2021/04/19 19:47:58;;;;;;;4.37;2.70;;;;;;;;;;10282113;28;20042;-64
2021/04/19 19:52:57;;;;;;;6.07;2.53;;;;;;;;;;10277291;28;20568;-63
2021/04/19 19:57:55;;;;;;;4.97;2.58;;;;;;;;;;10227117;28;20068;-64
2021/04/19 20:02:53;;;;;;;21.02;12.63;;;;;;;;;;10240532;28;20037;-64
2021/04/19 20:07:50;;;;;;;31.73;18.23;;;;;;;;;;10239602;28;20029;-65
2021/04/19 20:12:48;;;;;;;23.67;14.00;;;;;;;;;;10251074;28;20037;-65
2021/04/19 20:17:46;;;;;;;27.73;15.40;;;;;;;;;;10271083;28;20554;-64
2021/04/19 20:22:44;;;;;;;26.10;13.07;;;;;;;;;;10291611;28;20481;-65
2021/04/19 20:27:43;;;;;;;17.95;11.90;;;;;;;;;;10283611;28;20407;-64
2021/04/19 20:32:41;;;;;;;17.17;8.88;;;;;;;;;;10250177;28;20033;-64
2021/04/19 20:37:38;;;;;;;14.67;9.03;;;;;;;;;;10227022;28;20037;-64
2021/04/19 20:42:35;;;;;;;14.47;9.37;;;;;;;;;;10235852;28;20052;-62
2021/04/19 20:47:33;;;;;;;14.53;8.87;;;;;;;;;;10239217;28;20035;-62
2021/04/19 20:52:31;;;;;;;12.53;7.67;;;;;;;;;;10231552;28;20290;-65
2021/04/19 20:57:28;;;;;;;14.83;8.77;;;;;;;;;;10240106;28;20061;-65
2021/04/19 21:02:26;;;;;;;11.80;9.23;;;;;;;;;;10227861;28;20046;-64
2021/04/19 21:07:23;;;;;;;12.73;5.93;;;;;;;;;;10235071;28;20532;-64
2021/04/19 21:12:21;;;;;;;14.17;6.13;;;;;;;;;;10224139;28;20033;-64
2021/04/19 21:17:18;;;;;;;13.17;5.93;;;;;;;;;;10246406;28;20064;-65
2021/04/19 21:22:16;;;;;;;7.40;5.47;;;;;;;;;;10235443;28;20779;-64
2021/04/19 21:27:13;;;;;;;7.30;4.97;;;;;;;;;;10240042;28;20113;-64
2021/04/19 21:32:10;;;;;;;1.87;1.50;;;;;;;;;;10238842;28;20045;-64
2021/04/19 21:37:08;;;;;;;5.63;1.60;;;;;;;;;;10246838;28;20027;-64
2021/04/19 21:42:05;;;;;;;5.27;3.43;;;;;;;;;;10236866;28;20042;-65
2021/04/19 21:47:03;;;;;;;14.03;5.83;;;;;;;;;;10236886;28;20041;-64
2021/04/19 21:52:00;;;;;;;7.60;4.63;;;;;;;;;;10256841;28;20026;-64
2021/04/19 21:56:58;;;;;;;12.60;5.17;;;;;;;;;;10240255;28;20512;-64
2021/04/19 22:01:55;;;;;;;4.77;3.33;;;;;;;;;;10245076;28;20031;-63
2021/04/19 22:06:53;;;;;;;8.80;3.10;;;;;;;;;;10241773;28;20038;-63
2021/04/19 22:11:50;;;;;;;3.73;3.20;;;;;;;;;;10240144;28;20034;-63
2021/04/19 22:16:48;;;;;;;7.03;3.10;;;;;;;;;;10236712;28;20027;-63
2021/04/19 22:21:45;;;;;;;6.23;3.07;;;;;;;;;;10240616;28;20032;-63
2021/04/19 22:26:43;;;;;;;3.87;2.53;;;;;;;;;;10243897;28;20106;-62
2021/04/19 22:31:40;;;;;;;11.37;3.70;;;;;;;;;;10232346;28;20083;-62
2021/04/19 22:36:39;;;;;;;5.37;2.97;;;;;;;;;;10242369;28;20048;-63
2021/04/19 22:41:36;;;;;;;;;;;;;;;;;;10245450;28;20029;-63
2021/04/19 22:46:33;;;;;;;3.25;1.90;;;;;;;;;;10261839;28;19921;-65
2021/04/19 22:51:31;;;;;;;3.63;1.27;;;;;;;;;;10229164;28;20068;-61
2021/04/19 22:56:29;;;;;;;4.53;2.07;;;;;;;;;;10229857;28;20038;-63
2021/04/19 23:01:26;;;;;;;;;;;;;;;;;;10241272;28;20050;-62
2021/04/19 23:06:24;;;;;;;2.17;0.90;;;;;;;;;;10243968;28;19925;-60
2021/04/19 23:11:21;;;;;;;2.40;1.37;;;;;;;;;;10238112;28;20405;-59
2021/04/19 23:16:19;;;;;;;1.23;0.93;;;;;;;;;;10233752;28;20099;-59
2021/04/19 23:21:16;;;;;;;7.73;3.17;;;;;;;;;;10243285;28;20035;-62
2021/04/19 23:26:14;;;;;;;2.50;1.63;;;;;;;;;;10240381;28;20049;-59
2021/04/19 23:31:11;;;;;;;1.13;0.80;;;;;;;;;;10236829;28;20034;-59
2021/04/19 23:36:09;;;;;;;10.53;4.53;;;;;;;;;;10236569;28;20606;-60
2021/04/19 23:41:06;;;;;;;8.57;4.83;;;;;;;;;;10240519;28;20422;-60
2021/04/19 23:46:04;;;;;;;8.10;5.10;;;;;;;;;;10232773;28;20058;-59
2021/04/19 23:51:01;;;;;;;7.57;4.17;;;;;;;;;;10237527;28;20033;-61
2021/04/19 23:55:59;;;;;;;8.67;4.40;;;;;;;;;;10234152;28;20057;-63
